sensor_id;sensor_type;location;lat;lon;timestamp;P1;durP1;ratioP1;P2;durP2;ratioP2
74791;SDS011;63319;46.046;17.802;2023-06-24T00:00:04;5.93;;;3.50;;
74791;SDS011;63319;46.046;17.802;2023-06-24T00:03:13;5.30;;;3.30;;
74791;SDS011;63319;46.046;17.802;2023-06-24T00:06:20;6.68;;;3.65;;
74791;SDS011;63319;46.046;17.802;2023-06-24T00:09:25;6.40;;;4.07;;
74791;SDS011;63319;46.046;17.802;2023-06-24T00:12:30;5.80;;;3.70;;
74791;SDS011;63319;46.046;17.802;2023-06-24T00:15:32;6.03;;;3.63;;
74791;SDS011;63319;46.046;17.802;2023-06-24T00:18:37;5.90;;;3.53;;
74791;SDS011;63319;46.046;17.802;2023-06-24T00:21:43;6.60;;;3.92;;
74791;SDS011;63319;46.046;17.802;2023-06-24T00:24:47;5.78;;;3.45;;
74791;SDS011;63319;46.046;17.802;2023-06-24T00:27:50;5.15;;;3.20;;
74791;SDS011;63319;46.046;17.802;2023-06-24T00:30:53;7.20;;;3.50;;
74791;SDS011;63319;46.046;17.802;2023-06-24T00:33:56;6.10;;;3.72;;
74791;SDS011;63319;46.046;17.802;2023-06-24T00:36:59;5.82;;;3.75;;
74791;SDS011;63319;46.046;17.802;2023-06-24T00:40:05;5.70;;;3.47;;
74791;SDS011;63319;46.046;17.802;2023-06-24T00:43:12;5.70;;;3.50;;
74791;SDS011;63319;46.046;17.802;2023-06-24T00:46:15;5.57;;;3.10;;
74791;SDS011;63319;46.046;17.802;2023-06-24T00:49:18;5.88;;;3.67;;
74791;SDS011;63319;46.046;17.802;2023-06-24T00:52:21;6.25;;;3.50;;
74791;SDS011;63319;46.046;17.802;2023-06-24T00:55:24;5.43;;;2.97;;
74791;SDS011;63319;46.046;17.802;2023-06-24T00:58:27;6.45;;;3.50;;
74791;SDS011;63319;46.046;17.802;2023-06-24T01:01:33;5.97;;;3.53;;
74791;SDS011;63319;46.046;17.802;2023-06-24T01:04:40;5.50;;;3.28;;
74791;SDS011;63319;46.046;17.802;2023-06-24T01:07:43;5.72;;;3.58;;
74791;SDS011;63319;46.046;17.802;2023-06-24T01:10:51;5.38;;;3.28;;
74791;SDS011;63319;46.046;17.802;2023-06-24T01:13:54;5.47;;;3.53;;
74791;SDS011;63319;46.046;17.802;2023-06-24T01:17:05;5.43;;;3.10;;
74791;SDS011;63319;46.046;17.802;2023-06-24T01:20:11;5.60;;;3.28;;
74791;SDS011;63319;46.046;17.802;2023-06-24T01:34:24;5.60;;;3.30;;
74791;SDS011;63319;46.046;17.802;2023-06-24T01:37:37;5.95;;;3.38;;
74791;SDS011;63319;46.046;17.802;2023-06-24T01:40:47;5.80;;;3.45;;
74791;SDS011;63319;46.046;17.802;2023-06-24T01:43:52;4.75;;;2.88;;
74791;SDS011;63319;46.046;17.802;2023-06-24T01:46:57;5.65;;;3.33;;
74791;SDS011;63319;46.046;17.802;2023-06-24T01:50:02;5.63;;;3.10;;
74791;SDS011;63319;46.046;17.802;2023-06-24T01:53:06;5.57;;;2.80;;
74791;SDS011;63319;46.046;17.802;2023-06-24T01:56:12;4.85;;;3.00;;
74791;SDS011;63319;46.046;17.802;2023-06-24T01:59:20;5.15;;;3.00;;
74791;SDS011;63319;46.046;17.802;2023-06-24T02:02:25;5.70;;;3.42;;
74791;SDS011;63319;46.046;17.802;2023-06-24T02:05:29;5.37;;;3.10;;
74791;SDS011;63319;46.046;17.802;2023-06-24T02:08:35;5.32;;;2.90;;
74791;SDS011;63319;46.046;17.802;2023-06-24T02:11:40;5.55;;;3.17;;
74791;SDS011;63319;46.046;17.802;2023-06-24T02:14:44;5.30;;;2.80;;
74791;SDS011;63319;46.046;17.802;2023-06-24T02:17:49;4.80;;;2.80;;
74791;SDS011;63319;46.046;17.802;2023-06-24T02:20:55;5.53;;;3.10;;
74791;SDS011;63319;46.046;17.802;2023-06-24T02:23:59;5.28;;;3.08;;
74791;SDS011;63319;46.046;17.802;2023-06-24T02:27:03;5.55;;;3.20;;
74791;SDS011;63319;46.046;17.802;2023-06-24T02:30:07;5.90;;;3.30;;
74791;SDS011;63319;46.046;17.802;2023-06-24T02:33:12;5.25;;;2.88;;
74791;SDS011;63319;46.046;17.802;2023-06-24T02:36:15;5.43;;;2.90;;
74791;SDS011;63319;46.046;17.802;2023-06-24T02:39:18;5.05;;;3.22;;
74791;SDS011;63319;46.046;17.802;2023-06-24T02:42:21;5.60;;;3.10;;
74791;SDS011;63319;46.046;17.802;2023-06-24T02:45:25;4.75;;;2.63;;
74791;SDS011;63319;46.046;17.802;2023-06-24T02:48:30;5.50;;;3.20;;
74791;SDS011;63319;46.046;17.802;2023-06-24T02:51:35;5.03;;;2.97;;
74791;SDS011;63319;46.046;17.802;2023-06-24T02:54:41;5.65;;;3.00;;
74791;SDS011;63319;46.046;17.802;2023-06-24T02:58:02;5.65;;;3.33;;
74791;SDS011;63319;46.046;17.802;2023-06-24T03:01:42;5.90;;;3.00;;
74791;SDS011;63319;46.046;17.802;2023-06-24T03:04:48;6.47;;;3.25;;
74791;SDS011;63319;46.046;17.802;2023-06-24T03:07:53;5.47;;;3.13;;
74791;SDS011;63319;46.046;17.802;2023-06-24T03:10:57;5.80;;;3.10;;
74791;SDS011;63319;46.046;17.802;2023-06-24T03:14:04;6.07;;;3.08;;
74791;SDS011;63319;46.046;17.802;2023-06-24T03:17:11;6.18;;;2.88;;
74791;SDS011;63319;46.046;17.802;2023-06-24T03:20:14;6.00;;;3.08;;
74791;SDS011;63319;46.046;17.802;2023-06-24T03:23:17;5.10;;;2.63;;
74791;SDS011;63319;46.046;17.802;2023-06-24T03:26:20;5.18;;;2.78;;
74791;SDS011;63319;46.046;17.802;2023-06-24T03:29:24;5.00;;;2.85;;
74791;SDS011;63319;46.046;17.802;2023-06-24T03:32:38;5.10;;;2.70;;
74791;SDS011;63319;46.046;17.802;2023-06-24T03:35:44;5.00;;;2.80;;
74791;SDS011;63319;46.046;17.802;2023-06-24T03:38:51;5.27;;;2.97;;
74791;SDS011;63319;46.046;17.802;2023-06-24T03:41:54;4.40;;;2.50;;
74791;SDS011;63319;46.046;17.802;2023-06-24T03:44:57;5.25;;;2.92;;
74791;SDS011;63319;46.046;17.802;2023-06-24T03:48:00;5.57;;;3.10;;
74791;SDS011;63319;46.046;17.802;2023-06-24T03:51:05;4.80;;;2.70;;
74791;SDS011;63319;46.046;17.802;2023-06-24T03:54:08;5.67;;;2.67;;
74791;SDS011;63319;46.046;17.802;2023-06-24T03:57:11;6.65;;;2.20;;
74791;SDS011;63319;46.046;17.802;2023-06-24T04:00:15;5.53;;;2.28;;
74791;SDS011;63319;46.046;17.802;2023-06-24T04:03:20;4.88;;;2.65;;
74791;SDS011;63319;46.046;17.802;2023-06-24T04:06:23;5.03;;;2.60;;
74791;SDS011;63319;46.046;17.802;2023-06-24T04:09:28;4.67;;;2.60;;
74791;SDS011;63319;46.046;17.802;2023-06-24T04:12:32;5.15;;;2.83;;
74791;SDS011;63319;46.046;17.802;2023-06-24T04:15:35;4.90;;;2.60;;
74791;SDS011;63319;46.046;17.802;2023-06-24T04:18:40;5.07;;;2.65;;
74791;SDS011;63319;46.046;17.802;2023-06-24T04:21:43;5.18;;;2.85;;
74791;SDS011;63319;46.046;17.802;2023-06-24T04:24:47;5.03;;;2.50;;
74791;SDS011;63319;46.046;17.802;2023-06-24T04:27:50;5.93;;;3.08;;
74791;SDS011;63319;46.046;17.802;2023-06-24T04:30:53;5.05;;;2.78;;
74791;SDS011;63319;46.046;17.802;2023-06-24T04:33:57;4.65;;;2.47;;
74791;SDS011;63319;46.046;17.802;2023-06-24T04:36:59;4.30;;;2.53;;
74791;SDS011;63319;46.046;17.802;2023-06-24T04:40:02;4.83;;;2.53;;
74791;SDS011;63319;46.046;17.802;2023-06-24T04:43:06;4.55;;;2.80;;
74791;SDS011;63319;46.046;17.802;2023-06-24T04:46:09;4.80;;;2.78;;
74791;SDS011;63319;46.046;17.802;2023-06-24T04:49:12;5.53;;;2.63;;
74791;SDS011;63319;46.046;17.802;2023-06-24T04:52:15;5.70;;;2.90;;
74791;SDS011;63319;46.046;17.802;2023-06-24T04:55:18;5.73;;;2.77;;
74791;SDS011;63319;46.046;17.802;2023-06-24T04:58:21;4.32;;;2.45;;
74791;SDS011;63319;46.046;17.802;2023-06-24T05:01:24;4.80;;;2.78;;
74791;SDS011;63319;46.046;17.802;2023-06-24T05:04:27;5.18;;;2.80;;
74791;SDS011;63319;46.046;17.802;2023-06-24T05:07:30;4.82;;;2.78;;
74791;SDS011;63319;46.046;17.802;2023-06-24T05:10:33;4.30;;;2.67;;
74791;SDS011;63319;46.046;17.802;2023-06-24T05:13:37;4.28;;;2.60;;
74791;SDS011;63319;46.046;17.802;2023-06-24T05:16:40;4.47;;;2.70;;
74791;SDS011;63319;46.046;17.802;2023-06-24T05:19:43;4.55;;;2.53;;
74791;SDS011;63319;46.046;17.802;2023-06-24T05:22:46;4.70;;;2.40;;
74791;SDS011;63319;46.046;17.802;2023-06-24T05:25:49;4.47;;;2.40;;
74791;SDS011;63319;46.046;17.802;2023-06-24T05:28:52;4.03;;;2.35;;
74791;SDS011;63319;46.046;17.802;2023-06-24T05:31:55;4.25;;;2.28;;
74791;SDS011;63319;46.046;17.802;2023-06-24T05:34:57;5.03;;;2.75;;
74791;SDS011;63319;46.046;17.802;2023-06-24T05:38:00;6.75;;;2.40;;
74791;SDS011;63319;46.046;17.802;2023-06-24T05:41:03;4.67;;;2.50;;
74791;SDS011;63319;46.046;17.802;2023-06-24T05:44:07;4.95;;;2.50;;
74791;SDS011;63319;46.046;17.802;2023-06-24T05:47:12;5.07;;;2.50;;
74791;SDS011;63319;46.046;17.802;2023-06-24T05:50:15;4.32;;;2.55;;
74791;SDS011;63319;46.046;17.802;2023-06-24T05:53:18;4.68;;;2.75;;
74791;SDS011;63319;46.046;17.802;2023-06-24T05:56:21;4.20;;;2.30;;
74791;SDS011;63319;46.046;17.802;2023-06-24T05:59:25;4.65;;;2.60;;
74791;SDS011;63319;46.046;17.802;2023-06-24T06:02:27;5.03;;;2.40;;
74791;SDS011;63319;46.046;17.802;2023-06-24T06:05:30;5.35;;;2.28;;
74791;SDS011;63319;46.046;17.802;2023-06-24T06:08:34;4.70;;;2.55;;
74791;SDS011;63319;46.046;17.802;2023-06-24T06:11:37;4.33;;;2.57;;
74791;SDS011;63319;46.046;17.802;2023-06-24T06:14:40;4.22;;;2.35;;
74791;SDS011;63319;46.046;17.802;2023-06-24T06:17:43;4.75;;;2.53;;
74791;SDS011;63319;46.046;17.802;2023-06-24T06:20:45;4.35;;;2.42;;
74791;SDS011;63319;46.046;17.802;2023-06-24T06:23:48;5.97;;;2.55;;
74791;SDS011;63319;46.046;17.802;2023-06-24T06:26:51;4.17;;;2.43;;
74791;SDS011;63319;46.046;17.802;2023-06-24T06:29:54;3.97;;;2.20;;
74791;SDS011;63319;46.046;17.802;2023-06-24T06:32:57;4.22;;;2.28;;
74791;SDS011;63319;46.046;17.802;2023-06-24T06:36:00;4.72;;;2.20;;
74791;SDS011;63319;46.046;17.802;2023-06-24T06:39:03;4.60;;;2.60;;
74791;SDS011;63319;46.046;17.802;2023-06-24T06:42:07;4.47;;;2.47;;
74791;SDS011;63319;46.046;17.802;2023-06-24T06:45:10;4.53;;;2.38;;
74791;SDS011;63319;46.046;17.802;2023-06-24T06:48:13;5.40;;;2.60;;
74791;SDS011;63319;46.046;17.802;2023-06-24T06:51:16;4.20;;;2.30;;
74791;SDS011;63319;46.046;17.802;2023-06-24T06:54:21;4.63;;;2.70;;
74791;SDS011;63319;46.046;17.802;2023-06-24T06:57:23;4.03;;;2.23;;
74791;SDS011;63319;46.046;17.802;2023-06-24T07:00:29;4.60;;;2.65;;
74791;SDS011;63319;46.046;17.802;2023-06-24T07:03:32;3.78;;;2.00;;
74791;SDS011;63319;46.046;17.802;2023-06-24T07:06:35;4.38;;;2.35;;
74791;SDS011;63319;46.046;17.802;2023-06-24T07:09:38;4.00;;;1.92;;
74791;SDS011;63319;46.046;17.802;2023-06-24T07:12:41;4.53;;;2.33;;
74791;SDS011;63319;46.046;17.802;2023-06-24T07:15:44;4.60;;;2.40;;
74791;SDS011;63319;46.046;17.802;2023-06-24T07:18:47;4.78;;;2.67;;
74791;SDS011;63319;46.046;17.802;2023-06-24T07:21:51;5.25;;;2.10;;
74791;SDS011;63319;46.046;17.802;2023-06-24T07:24:54;4.22;;;2.20;;
74791;SDS011;63319;46.046;17.802;2023-06-24T07:27:58;3.90;;;2.00;;
74791;SDS011;63319;46.046;17.802;2023-06-24T07:31:01;4.22;;;2.25;;
74791;SDS011;63319;46.046;17.802;2023-06-24T07:34:04;4.35;;;2.35;;
74791;SDS011;63319;46.046;17.802;2023-06-24T07:37:07;3.58;;;2.03;;
74791;SDS011;63319;46.046;17.802;2023-06-24T07:40:24;4.03;;;2.22;;
74791;SDS011;63319;46.046;17.802;2023-06-24T07:43:27;4.40;;;2.27;;
74791;SDS011;63319;46.046;17.802;2023-06-24T07:46:30;3.95;;;2.10;;
74791;SDS011;63319;46.046;17.802;2023-06-24T07:49:33;3.88;;;2.22;;
74791;SDS011;63319;46.046;17.802;2023-06-24T07:52:37;4.35;;;2.28;;
74791;SDS011;63319;46.046;17.802;2023-06-24T07:55:40;4.28;;;2.30;;
74791;SDS011;63319;46.046;17.802;2023-06-24T07:58:43;3.70;;;2.20;;
74791;SDS011;63319;46.046;17.802;2023-06-24T08:01:46;3.80;;;2.05;;
74791;SDS011;63319;46.046;17.802;2023-06-24T08:04:49;3.70;;;2.00;;
74791;SDS011;63319;46.046;17.802;2023-06-24T08:07:53;3.92;;;2.00;;
74791;SDS011;63319;46.046;17.802;2023-06-24T08:10:56;3.80;;;2.05;;
74791;SDS011;63319;46.046;17.802;2023-06-24T08:13:59;3.93;;;2.00;;
74791;SDS011;63319;46.046;17.802;2023-06-24T08:17:02;3.42;;;1.98;;
74791;SDS011;63319;46.046;17.802;2023-06-24T08:20:05;3.78;;;2.28;;
74791;SDS011;63319;46.046;17.802;2023-06-24T08:23:08;3.63;;;1.83;;
74791;SDS011;63319;46.046;17.802;2023-06-24T08:26:12;3.17;;;1.77;;
74791;SDS011;63319;46.046;17.802;2023-06-24T08:29:18;4.33;;;1.90;;
74791;SDS011;63319;46.046;17.802;2023-06-24T08:32:21;3.30;;;1.77;;
74791;SDS011;63319;46.046;17.802;2023-06-24T08:35:24;3.05;;;1.67;;
74791;SDS011;63319;46.046;17.802;2023-06-24T08:38:27;3.85;;;1.90;;
74791;SDS011;63319;46.046;17.802;2023-06-24T08:41:30;3.22;;;1.80;;
74791;SDS011;63319;46.046;17.802;2023-06-24T08:44:33;3.70;;;1.93;;
74791;SDS011;63319;46.046;17.802;2023-06-24T08:47:36;3.55;;;1.85;;
74791;SDS011;63319;46.046;17.802;2023-06-24T08:50:46;3.88;;;1.90;;
74791;SDS011;63319;46.046;17.802;2023-06-24T08:53:53;3.60;;;1.92;;
74791;SDS011;63319;46.046;17.802;2023-06-24T08:56:56;3.25;;;1.73;;
74791;SDS011;63319;46.046;17.802;2023-06-24T08:59:59;3.50;;;1.87;;
74791;SDS011;63319;46.046;17.802;2023-06-24T09:03:02;3.28;;;1.77;;
74791;SDS011;63319;46.046;17.802;2023-06-24T09:06:05;3.03;;;1.70;;
74791;SDS011;63319;46.046;17.802;2023-06-24T09:09:18;3.00;;;1.70;;
74791;SDS011;63319;46.046;17.802;2023-06-24T09:12:24;3.63;;;1.83;;
74791;SDS011;63319;46.046;17.802;2023-06-24T09:15:34;3.23;;;1.90;;
74791;SDS011;63319;46.046;17.802;2023-06-24T09:18:39;4.05;;;1.63;;
74791;SDS011;63319;46.046;17.802;2023-06-24T09:21:42;4.10;;;1.98;;
74791;SDS011;63319;46.046;17.802;2023-06-24T09:24:48;3.40;;;1.80;;
74791;SDS011;63319;46.046;17.802;2023-06-24T09:27:51;3.60;;;1.95;;
74791;SDS011;63319;46.046;17.802;2023-06-24T09:31:07;3.10;;;1.70;;
74791;SDS011;63319;46.046;17.802;2023-06-24T09:34:21;3.13;;;1.60;;
74791;SDS011;63319;46.046;17.802;2023-06-24T09:37:24;4.18;;;2.30;;
74791;SDS011;63319;46.046;17.802;2023-06-24T09:40:34;3.08;;;1.60;;
74791;SDS011;63319;46.046;17.802;2023-06-24T09:43:40;2.90;;;1.60;;
74791;SDS011;63319;46.046;17.802;2023-06-24T09:46:45;3.07;;;1.73;;
74791;SDS011;63319;46.046;17.802;2023-06-24T09:49:48;3.78;;;1.90;;
74791;SDS011;63319;46.046;17.802;2023-06-24T09:52:51;3.70;;;2.08;;
74791;SDS011;63319;46.046;17.802;2023-06-24T09:55:55;3.53;;;1.73;;
74791;SDS011;63319;46.046;17.802;2023-06-24T09:59:25;3.50;;;1.90;;
74791;SDS011;63319;46.046;17.802;2023-06-24T10:02:30;2.80;;;1.50;;
74791;SDS011;63319;46.046;17.802;2023-06-24T10:05:35;3.30;;;1.80;;
74791;SDS011;63319;46.046;17.802;2023-06-24T10:08:38;3.35;;;1.90;;
74791;SDS011;63319;46.046;17.802;2023-06-24T10:11:41;3.03;;;1.60;;
74791;SDS011;63319;46.046;17.802;2023-06-24T10:14:44;3.72;;;2.10;;
74791;SDS011;63319;46.046;17.802;2023-06-24T10:17:47;3.10;;;1.60;;
74791;SDS011;63319;46.046;17.802;2023-06-24T10:20:51;3.05;;;1.52;;
74791;SDS011;63319;46.046;17.802;2023-06-24T10:23:54;3.38;;;1.75;;
74791;SDS011;63319;46.046;17.802;2023-06-24T10:27:03;3.50;;;1.70;;
74791;SDS011;63319;46.046;17.802;2023-06-24T10:30:17;2.92;;;1.67;;
74791;SDS011;63319;46.046;17.802;2023-06-24T10:33:23;3.67;;;1.80;;
74791;SDS011;63319;46.046;17.802;2023-06-24T10:36:32;3.28;;;1.60;;
74791;SDS011;63319;46.046;17.802;2023-06-24T10:39:54;2.80;;;1.55;;
74791;SDS011;63319;46.046;17.802;2023-06-24T10:42:58;2.95;;;1.40;;
74791;SDS011;63319;46.046;17.802;2023-06-24T10:46:06;3.33;;;1.65;;
74791;SDS011;63319;46.046;17.802;2023-06-24T10:49:18;3.27;;;1.73;;
74791;SDS011;63319;46.046;17.802;2023-06-24T10:52:22;3.25;;;1.60;;
74791;SDS011;63319;46.046;17.802;2023-06-24T10:55:25;3.25;;;1.75;;
74791;SDS011;63319;46.046;17.802;2023-06-24T10:58:28;3.28;;;1.40;;
74791;SDS011;63319;46.046;17.802;2023-06-24T11:01:31;2.75;;;1.60;;
74791;SDS011;63319;46.046;17.802;2023-06-24T11:04:41;3.03;;;1.70;;
74791;SDS011;63319;46.046;17.802;2023-06-24T11:07:47;2.97;;;1.58;;
74791;SDS011;63319;46.046;17.802;2023-06-24T11:10:50;3.05;;;1.70;;
74791;SDS011;63319;46.046;17.802;2023-06-24T11:13:53;2.97;;;1.50;;
74791;SDS011;63319;46.046;17.802;2023-06-24T11:17:00;3.30;;;1.83;;
74791;SDS011;63319;46.046;17.802;2023-06-24T11:20:10;3.13;;;1.60;;
74791;SDS011;63319;46.046;17.802;2023-06-24T11:23:15;3.05;;;1.45;;
74791;SDS011;63319;46.046;17.802;2023-06-24T11:26:17;2.65;;;1.50;;
74791;SDS011;63319;46.046;17.802;2023-06-24T11:29:21;2.70;;;1.40;;
74791;SDS011;63319;46.046;17.802;2023-06-24T11:32:24;2.78;;;1.60;;
74791;SDS011;63319;46.046;17.802;2023-06-24T11:35:27;2.70;;;1.33;;
74791;SDS011;63319;46.046;17.802;2023-06-24T11:38:30;2.53;;;1.40;;
74791;SDS011;63319;46.046;17.802;2023-06-24T11:41:36;3.03;;;1.63;;
74791;SDS011;63319;46.046;17.802;2023-06-24T11:44:42;2.35;;;1.33;;
74791;SDS011;63319;46.046;17.802;2023-06-24T11:47:45;2.55;;;1.23;;
74791;SDS011;63319;46.046;17.802;2023-06-24T11:50:54;2.53;;;1.37;;
74791;SDS011;63319;46.046;17.802;2023-06-24T11:54:04;2.70;;;1.60;;
74791;SDS011;63319;46.046;17.802;2023-06-24T11:57:08;3.10;;;1.58;;
74791;SDS011;63319;46.046;17.802;2023-06-24T12:00:14;3.00;;;1.50;;
74791;SDS011;63319;46.046;17.802;2023-06-24T12:03:17;3.10;;;1.52;;
74791;SDS011;63319;46.046;17.802;2023-06-24T12:06:25;3.17;;;1.60;;
74791;SDS011;63319;46.046;17.802;2023-06-24T12:09:28;3.83;;;1.50;;
74791;SDS011;63319;46.046;17.802;2023-06-24T12:12:31;3.42;;;1.42;;
74791;SDS011;63319;46.046;17.802;2023-06-24T12:15:34;3.00;;;1.50;;
74791;SDS011;63319;46.046;17.802;2023-06-24T12:18:37;3.00;;;1.63;;
74791;SDS011;63319;46.046;17.802;2023-06-24T12:21:40;2.50;;;1.30;;
74791;SDS011;63319;46.046;17.802;2023-06-24T12:24:43;3.28;;;1.60;;
74791;SDS011;63319;46.046;17.802;2023-06-24T12:27:46;2.58;;;1.50;;
74791;SDS011;63319;46.046;17.802;2023-06-24T12:30:49;2.45;;;1.30;;
74791;SDS011;63319;46.046;17.802;2023-06-24T12:33:53;2.75;;;1.50;;
74791;SDS011;63319;46.046;17.802;2023-06-24T12:36:56;2.10;;;1.10;;
74791;SDS011;63319;46.046;17.802;2023-06-24T12:39:59;2.45;;;1.33;;
74791;SDS011;63319;46.046;17.802;2023-06-24T12:43:02;3.40;;;1.50;;
74791;SDS011;63319;46.046;17.802;2023-06-24T12:46:07;2.70;;;1.50;;
74791;SDS011;63319;46.046;17.802;2023-06-24T12:49:10;3.20;;;1.60;;
74791;SDS011;63319;46.046;17.802;2023-06-24T12:52:13;2.70;;;1.40;;
74791;SDS011;63319;46.046;17.802;2023-06-24T12:55:16;2.60;;;1.48;;
74791;SDS011;63319;46.046;17.802;2023-06-24T12:58:21;2.33;;;1.38;;
74791;SDS011;63319;46.046;17.802;2023-06-24T13:01:25;2.53;;;1.50;;
74791;SDS011;63319;46.046;17.802;2023-06-24T13:04:28;2.58;;;1.50;;
74791;SDS011;63319;46.046;17.802;2023-06-24T13:07:31;2.87;;;1.50;;
74791;SDS011;63319;46.046;17.802;2023-06-24T13:10:35;2.35;;;1.30;;
74791;SDS011;63319;46.046;17.802;2023-06-24T13:13:38;2.15;;;1.33;;
74791;SDS011;63319;46.046;17.802;2023-06-24T13:16:41;2.45;;;1.30;;
74791;SDS011;63319;46.046;17.802;2023-06-24T13:19:44;2.30;;;1.33;;
74791;SDS011;63319;46.046;17.802;2023-06-24T13:22:47;2.33;;;1.30;;
74791;SDS011;63319;46.046;17.802;2023-06-24T13:25:50;2.35;;;1.38;;
74791;SDS011;63319;46.046;17.802;2023-06-24T13:28:53;3.20;;;1.38;;
74791;SDS011;63319;46.046;17.802;2023-06-24T13:31:56;2.85;;;1.50;;
74791;SDS011;63319;46.046;17.802;2023-06-24T13:34:59;2.38;;;1.35;;
74791;SDS011;63319;46.046;17.802;2023-06-24T13:38:02;2.87;;;1.50;;
74791;SDS011;63319;46.046;17.802;2023-06-24T13:41:06;2.30;;;1.30;;
74791;SDS011;63319;46.046;17.802;2023-06-24T13:44:09;2.55;;;1.48;;
74791;SDS011;63319;46.046;17.802;2023-06-24T13:47:12;2.50;;;1.27;;
74791;SDS011;63319;46.046;17.802;2023-06-24T13:50:15;2.65;;;1.33;;
74791;SDS011;63319;46.046;17.802;2023-06-24T13:53:18;2.10;;;1.10;;
74791;SDS011;63319;46.046;17.802;2023-06-24T13:56:23;2.60;;;1.38;;
74791;SDS011;63319;46.046;17.802;2023-06-24T13:59:26;2.10;;;1.13;;
74791;SDS011;63319;46.046;17.802;2023-06-24T14:02:29;2.22;;;1.23;;
74791;SDS011;63319;46.046;17.802;2023-06-24T14:05:32;2.60;;;1.20;;
74791;SDS011;63319;46.046;17.802;2023-06-24T14:08:35;2.90;;;1.50;;
74791;SDS011;63319;46.046;17.802;2023-06-24T14:11:39;2.40;;;1.33;;
74791;SDS011;63319;46.046;17.802;2023-06-24T14:14:42;2.75;;;1.52;;
74791;SDS011;63319;46.046;17.802;2023-06-24T14:17:45;2.55;;;1.35;;
74791;SDS011;63319;46.046;17.802;2023-06-24T14:20:48;1.95;;;1.20;;
74791;SDS011;63319;46.046;17.802;2023-06-24T14:23:51;2.80;;;1.20;;
74791;SDS011;63319;46.046;17.802;2023-06-24T14:26:58;2.47;;;1.20;;
74791;SDS011;63319;46.046;17.802;2023-06-24T14:30:02;2.30;;;1.20;;
74791;SDS011;63319;46.046;17.802;2023-06-24T14:33:05;2.60;;;1.30;;
74791;SDS011;63319;46.046;17.802;2023-06-24T14:36:08;2.45;;;1.30;;
74791;SDS011;63319;46.046;17.802;2023-06-24T14:39:13;2.23;;;1.20;;
74791;SDS011;63319;46.046;17.802;2023-06-24T14:42:18;2.13;;;1.10;;
74791;SDS011;63319;46.046;17.802;2023-06-24T14:45:21;1.92;;;1.10;;
74791;SDS011;63319;46.046;17.802;2023-06-24T14:48:26;2.47;;;1.20;;
74791;SDS011;63319;46.046;17.802;2023-06-24T14:51:29;2.08;;;1.02;;
74791;SDS011;63319;46.046;17.802;2023-06-24T14:54:32;2.27;;;1.13;;
74791;SDS011;63319;46.046;17.802;2023-06-24T14:57:35;1.83;;;1.10;;
74791;SDS011;63319;46.046;17.802;2023-06-24T15:00:38;2.83;;;1.45;;
74791;SDS011;63319;46.046;17.802;2023-06-24T15:03:41;2.03;;;1.10;;
74791;SDS011;63319;46.046;17.802;2023-06-24T15:06:44;2.13;;;1.23;;
74791;SDS011;63319;46.046;17.802;2023-06-24T15:09:48;2.63;;;1.40;;
74791;SDS011;63319;46.046;17.802;2023-06-24T15:12:51;1.80;;;1.10;;
74791;SDS011;63319;46.046;17.802;2023-06-24T15:15:54;2.35;;;1.25;;
74791;SDS011;63319;46.046;17.802;2023-06-24T15:18:58;2.08;;;1.20;;
74791;SDS011;63319;46.046;17.802;2023-06-24T15:22:01;2.08;;;1.25;;
74791;SDS011;63319;46.046;17.802;2023-06-24T15:25:05;2.33;;;1.30;;
74791;SDS011;63319;46.046;17.802;2023-06-24T15:28:08;2.35;;;1.15;;
74791;SDS011;63319;46.046;17.802;2023-06-24T15:31:11;3.63;;;1.50;;
74791;SDS011;63319;46.046;17.802;2023-06-24T15:34:14;2.60;;;1.33;;
74791;SDS011;63319;46.046;17.802;2023-06-24T15:37:17;2.92;;;1.48;;
74791;SDS011;63319;46.046;17.802;2023-06-24T15:40:20;2.83;;;1.30;;
74791;SDS011;63319;46.046;17.802;2023-06-24T15:43:23;2.25;;;1.20;;
74791;SDS011;63319;46.046;17.802;2023-06-24T15:46:26;2.20;;;1.30;;
74791;SDS011;63319;46.046;17.802;2023-06-24T15:49:29;1.67;;;0.90;;
74791;SDS011;63319;46.046;17.802;2023-06-24T15:52:31;2.10;;;1.08;;
74791;SDS011;63319;46.046;17.802;2023-06-24T15:55:34;1.60;;;1.00;;
74791;SDS011;63319;46.046;17.802;2023-06-24T15:58:37;2.30;;;1.15;;
74791;SDS011;63319;46.046;17.802;2023-06-24T16:01:40;1.77;;;0.98;;
74791;SDS011;63319;46.046;17.802;2023-06-24T16:04:44;2.05;;;1.27;;
74791;SDS011;63319;46.046;17.802;2023-06-24T16:07:47;2.60;;;1.20;;
74791;SDS011;63319;46.046;17.802;2023-06-24T16:10:50;3.07;;;1.30;;
74791;SDS011;63319;46.046;17.802;2023-06-24T16:13:53;2.67;;;1.42;;
74791;SDS011;63319;46.046;17.802;2023-06-24T16:16:56;2.10;;;1.10;;
74791;SDS011;63319;46.046;17.802;2023-06-24T16:19:59;2.78;;;1.50;;
74791;SDS011;63319;46.046;17.802;2023-06-24T16:23:02;2.92;;;1.20;;
74791;SDS011;63319;46.046;17.802;2023-06-24T16:26:06;2.20;;;1.13;;
74791;SDS011;63319;46.046;17.802;2023-06-24T16:29:09;2.35;;;1.10;;
74791;SDS011;63319;46.046;17.802;2023-06-24T16:32:12;2.15;;;1.15;;
74791;SDS011;63319;46.046;17.802;2023-06-24T16:35:15;1.75;;;1.00;;
74791;SDS011;63319;46.046;17.802;2023-06-24T16:38:18;2.25;;;1.10;;
74791;SDS011;63319;46.046;17.802;2023-06-24T16:41:21;2.40;;;1.17;;
74791;SDS011;63319;46.046;17.802;2023-06-24T16:44:24;2.30;;;1.23;;
74791;SDS011;63319;46.046;17.802;2023-06-24T16:47:28;2.40;;;1.35;;
74791;SDS011;63319;46.046;17.802;2023-06-24T16:50:32;1.80;;;1.00;;
74791;SDS011;63319;46.046;17.802;2023-06-24T16:53:37;2.10;;;1.02;;
74791;SDS011;63319;46.046;17.802;2023-06-24T16:56:40;2.20;;;1.10;;
74791;SDS011;63319;46.046;17.802;2023-06-24T16:59:43;2.58;;;1.40;;
74791;SDS011;63319;46.046;17.802;2023-06-24T17:02:46;1.80;;;1.10;;
74791;SDS011;63319;46.046;17.802;2023-06-24T17:05:49;2.47;;;1.25;;
74791;SDS011;63319;46.046;17.802;2023-06-24T17:08:52;1.88;;;1.00;;
74791;SDS011;63319;46.046;17.802;2023-06-24T17:11:55;2.00;;;1.00;;
74791;SDS011;63319;46.046;17.802;2023-06-24T17:14:58;2.05;;;1.10;;
74791;SDS011;63319;46.046;17.802;2023-06-24T17:18:01;2.20;;;1.08;;
74791;SDS011;63319;46.046;17.802;2023-06-24T17:21:04;3.92;;;1.08;;
74791;SDS011;63319;46.046;17.802;2023-06-24T17:24:07;2.13;;;1.08;;
74791;SDS011;63319;46.046;17.802;2023-06-24T17:27:10;1.43;;;0.90;;
74791;SDS011;63319;46.046;17.802;2023-06-24T17:30:13;1.85;;;1.00;;
74791;SDS011;63319;46.046;17.802;2023-06-24T17:33:16;1.83;;;1.23;;
74791;SDS011;63319;46.046;17.802;2023-06-24T17:36:19;2.25;;;1.17;;
74791;SDS011;63319;46.046;17.802;2023-06-24T17:39:22;2.00;;;1.30;;
74791;SDS011;63319;46.046;17.802;2023-06-24T17:42:28;2.37;;;1.40;;
74791;SDS011;63319;46.046;17.802;2023-06-24T17:45:31;1.92;;;1.08;;
74791;SDS011;63319;46.046;17.802;2023-06-24T17:48:37;2.05;;;1.10;;
74791;SDS011;63319;46.046;17.802;2023-06-24T17:51:39;2.38;;;1.15;;
74791;SDS011;63319;46.046;17.802;2023-06-24T17:54:42;2.35;;;1.30;;
74791;SDS011;63319;46.046;17.802;2023-06-24T17:57:45;1.83;;;1.03;;
74791;SDS011;63319;46.046;17.802;2023-06-24T18:00:48;2.03;;;1.00;;
74791;SDS011;63319;46.046;17.802;2023-06-24T18:03:51;2.60;;;1.20;;
74791;SDS011;63319;46.046;17.802;2023-06-24T18:06:54;1.95;;;1.00;;
74791;SDS011;63319;46.046;17.802;2023-06-24T18:09:57;2.22;;;1.17;;
74791;SDS011;63319;46.046;17.802;2023-06-24T18:13:00;1.67;;;0.90;;
74791;SDS011;63319;46.046;17.802;2023-06-24T18:16:03;1.85;;;1.00;;
74791;SDS011;63319;46.046;17.802;2023-06-24T18:19:06;2.47;;;1.33;;
74791;SDS011;63319;46.046;17.802;2023-06-24T18:22:11;2.30;;;1.23;;